Time;durP1;ratioP1;P1;durP2;ratioP2;P2;SDS_P1;SDS_P2;PMS_P1;PMS_P2;Temp;Humidity;BMP_temperature;BMP_pressure;BME280_temperature;BME280_humidity;BME280_pressure;Samples;Min_cycle;Max_cycle;Signal;HPM_P1;HPM_P2
2023/07/10 00:06:51;;;;;;;5.03;2.08;;;;;;;;;;20925605;28;20561;-71
2023/07/10 00:16:53;;;;;;;4.28;1.90;;;;;;;;;;20925272;28;20603;-71
2023/07/10 00:26:54;;;;;;;5.93;2.03;;;;;;;;;;20920938;28;20085;-71
2023/07/10 00:36:55;;;;;;;3.42;1.88;;;;;;;;;;20922397;28;20037;-71
2023/07/10 00:46:57;;;;;;;7.90;1.90;;;;;;;;;;20921667;28;20051;-72
2023/07/10 00:57:00;;;;;;;5.40;2.10;;;;;;;;;;20919231;28;20037;-71
2023/07/10 01:07:01;;;;;;;3.28;1.95;;;;;;;;;;20919576;28;20045;-72
2023/07/10 01:17:03;;;;;;;5.18;2.30;;;;;;;;;;20918518;28;20037;-71
2023/07/10 01:27:12;;;;;;;6.10;2.80;;;;;;;;;;20918326;28;20143;-71
2023/07/10 01:37:13;;;;;;;7.47;2.97;;;;;;;;;;20915978;28;20041;-72
2023/07/10 01:47:15;;;;;;;5.53;2.05;;;;;;;;;;20916330;28;20041;-72
2023/07/10 01:57:16;;;;;;;4.80;1.85;;;;;;;;;;20915833;28;20041;-72
2023/07/10 02:07:18;;;;;;;6.07;1.77;;;;;;;;;;20914767;28;20446;-71
2023/07/10 02:17:19;;;;;;;8.38;3.95;;;;;;;;;;20914493;28;20431;-72
2023/07/10 02:27:20;;;;;;;3.97;2.17;;;;;;;;;;20912934;28;20555;-71
2023/07/10 02:37:21;;;;;;;4.65;1.77;;;;;;;;;;20913045;28;20550;-72
2023/07/10 02:47:22;;;;;;;3.15;2.03;;;;;;;;;;20912183;28;20053;-72
2023/07/10 02:57:23;;;;;;;3.13;1.77;;;;;;;;;;20911171;28;20049;-72
2023/07/10 03:07:24;;;;;;;4.75;2.25;;;;;;;;;;20910757;28;20045;-74
2023/07/10 03:17:25;;;;;;;7.05;2.00;;;;;;;;;;20911800;28;20045;-72
2023/07/10 03:27:27;;;;;;;4.80;1.55;;;;;;;;;;20912021;28;20088;-72
2023/07/10 03:37:28;;;;;;;3.50;1.70;;;;;;;;;;20911189;28;20048;-72
2023/07/10 03:47:29;;;;;;;2.50;1.33;;;;;;;;;;20910392;28;20069;-72
2023/07/10 03:57:30;;;;;;;1.52;1.30;;;;;;;;;;20910563;28;20124;-72
2023/07/10 04:07:31;;;;;;;2.90;1.67;;;;;;;;;;20924395;28;20474;-72
2023/07/10 04:17:33;;;;;;;7.93;1.67;;;;;;;;;;20922239;28;20044;-72
2023/07/10 04:27:34;;;;;;;3.60;1.60;;;;;;;;;;20921782;28;20049;-72
2023/07/10 04:37:35;;;;;;;7.57;4.32;;;;;;;;;;20922499;28;20119;-71
2023/07/10 04:47:36;;;;;;;3.60;1.80;;;;;;;;;;20921622;28;20045;-72
2023/07/10 04:57:37;;;;;;;4.68;2.05;;;;;;;;;;20921020;28;20453;-72
2023/07/10 05:07:38;;;;;;;6.85;2.15;;;;;;;;;;20920206;28;20450;-71
2023/07/10 05:17:41;;;;;;;2.50;1.63;;;;;;;;;;20919005;28;20134;-71
2023/07/10 05:27:42;;;;;;;7.40;4.10;;;;;;;;;;20917113;28;20053;-72
2023/07/10 05:37:43;;;;;;;44.17;23.65;;;;;;;;;;20917887;28;20110;-72
2023/07/10 05:47:44;;;;;;;7.88;3.20;;;;;;;;;;20918080;28;20474;-72
2023/07/10 05:57:45;;;;;;;4.38;2.08;;;;;;;;;;20916108;28;20064;-72
2023/07/10 06:07:46;;;;;;;6.32;2.55;;;;;;;;;;20915128;28;20128;-71
2023/07/10 06:17:48;;;;;;;3.55;1.52;;;;;;;;;;20913288;28;20041;-69
2023/07/10 06:27:49;;;;;;;8.35;2.10;;;;;;;;;;20911929;28;20091;-69
2023/07/10 06:37:50;;;;;;;8.25;2.10;;;;;;;;;;20913331;28;20084;-70
2023/07/10 06:47:51;;;;;;;9.98;2.30;;;;;;;;;;20912662;28;20127;-68
2023/07/10 06:57:52;;;;;;;8.15;2.33;;;;;;;;;;20912173;28;20105;-70
2023/07/10 07:07:53;;;;;;;5.72;1.90;;;;;;;;;;20912305;28;20055;-70
2023/07/10 07:17:54;;;;;;;7.15;2.55;;;;;;;;;;20911646;28;20508;-69
2023/07/10 07:27:59;;;;;;;4.53;2.38;;;;;;;;;;20912410;28;20099;-70
2023/07/10 07:38:00;;;;;;;3.15;1.80;;;;;;;;;;20922306;28;20486;-70
2023/07/10 07:48:01;;;;;;;4.30;2.00;;;;;;;;;;20924795;28;20041;-72
2023/07/10 07:58:02;;;;;;;5.32;2.10;;;;;;;;;;20923609;28;20051;-71
2023/07/10 08:08:07;;;;;;;6.35;2.28;;;;;;;;;;20924732;28;20053;-70
2023/07/10 08:18:08;;;;;;;4.53;2.42;;;;;;;;;;20923792;28;20037;-71
2023/07/10 08:28:10;;;;;;;5.07;2.20;;;;;;;;;;20921777;28;20414;-70
2023/07/10 08:38:11;;;;;;;8.13;2.58;;;;;;;;;;20921996;28;20461;-70
2023/07/10 08:48:31;;;;;;;6.05;2.53;;;;;;;;;;20920294;28;20044;-70
2023/07/10 08:58:34;;;;;;;11.10;2.85;;;;;;;;;;20921613;28;20049;-71
2023/07/10 09:08:36;;;;;;;4.78;2.60;;;;;;;;;;20919757;28;20095;-71
2023/07/10 09:18:43;;;;;;;7.97;3.00;;;;;;;;;;20917939;28;20076;-70
2023/07/10 09:28:49;;;;;;;4.90;2.92;;;;;;;;;;20917751;28;20498;-71
2023/07/10 09:38:52;;;;;;;7.93;3.17;;;;;;;;;;20916872;28;20055;-70
2023/07/10 09:48:54;;;;;;;12.88;3.25;;;;;;;;;;20915945;28;20068;-70
2023/07/10 09:58:55;;;;;;;11.75;3.35;;;;;;;;;;20914933;28;20116;-70
2023/07/10 10:08:57;;;;;;;9.55;3.60;;;;;;;;;;20913908;28;20127;-71
2023/07/10 10:19:02;;;;;;;9.05;3.00;;;;;;;;;;20912242;28;20047;-71
2023/07/10 10:29:15;;;;;;;10.47;3.03;;;;;;;;;;20912533;28;20084;-70
2023/07/10 10:39:25;;;;;;;9.63;2.85;;;;;;;;;;20913115;28;20049;-71
2023/07/10 10:49:36;;;;;;;6.78;2.80;;;;;;;;;;20912797;28;20049;-71
2023/07/10 10:59:47;;;;;;;9.38;2.85;;;;;;;;;;20912393;28;20525;-72
2023/07/10 11:09:50;;;;;;;10.10;3.45;;;;;;;;;;20916379;28;20045;-69
2023/07/10 11:19:52;;;;;;;8.00;3.05;;;;;;;;;;20926268;28;20061;-72
2023/07/10 11:29:54;;;;;;;9.82;2.80;;;;;;;;;;20926085;28;20049;-70
2023/07/10 11:39:56;;;;;;;4.85;2.70;;;;;;;;;;20926972;28;20045;-71
2023/07/10 11:49:57;;;;;;;10.23;3.13;;;;;;;;;;20924649;28;20052;-71
2023/07/10 11:59:59;;;;;;;9.20;2.80;;;;;;;;;;20929739;28;20131;-72
2023/07/10 12:10:00;;;;;;;6.43;2.67;;;;;;;;;;20950236;28;20132;-72
2023/07/10 12:20:03;;;;;;;8.00;3.13;;;;;;;;;;20923012;28;20065;-72
2023/07/10 12:30:12;;;;;;;9.38;3.08;;;;;;;;;;20923625;28;20088;-71
2023/07/10 12:40:14;;;;;;;9.88;2.78;;;;;;;;;;20923592;28;20407;-72
2023/07/10 12:50:16;;;;;;;5.32;2.70;;;;;;;;;;20920324;28;20037;-72
2023/07/10 13:00:17;;;;;;;8.57;3.30;;;;;;;;;;20921532;28;20040;-71
2023/07/10 13:10:21;;;;;;;9.52;3.10;;;;;;;;;;20920538;28;20055;-71
2023/07/10 13:20:22;;;;;;;;;;;;;;;;;;20919159;28;20057;-70
2023/07/10 13:30:25;;;;;;;5.00;2.92;;;;;;;;;;20918078;28;20412;-71
2023/07/10 13:40:26;;;;;;;11.57;2.40;;;;;;;;;;20917893;28;20063;-71
2023/07/10 13:50:27;;;;;;;6.65;2.72;;;;;;;;;;20915746;28;20110;-71
2023/07/10 14:00:29;;;;;;;8.98;2.78;;;;;;;;;;20918829;28;20551;-72
2023/07/10 14:10:30;;;;;;;4.40;2.65;;;;;;;;;;20916379;28;20041;-71
2023/07/10 14:20:31;;;;;;;9.05;2.83;;;;;;;;;;20915851;28;20053;-72
2023/07/10 14:30:32;;;;;;;4.70;2.10;;;;;;;;;;20914044;28;20128;-71
2023/07/10 14:40:33;;;;;;;6.47;2.45;;;;;;;;;;20914317;28;20506;-72
2023/07/10 14:50:35;;;;;;;7.50;2.83;;;;;;;;;;20914106;28;20526;-72
2023/07/10 15:00:36;;;;;;;8.05;2.78;;;;;;;;;;20913919;28;20521;-72
2023/07/10 15:10:37;;;;;;;8.35;2.92;;;;;;;;;;20911681;28;20098;-72
2023/07/10 15:20:38;;;;;;;8.48;2.30;;;;;;;;;;20913037;28;20067;-72
2023/07/10 15:30:40;;;;;;;5.75;2.35;;;;;;;;;;20910936;28;20087;-72
2023/07/10 15:40:41;;;;;;;11.13;2.72;;;;;;;;;;20911845;28;20103;-72
2023/07/10 15:50:43;;;;;;;5.75;2.15;;;;;;;;;;20911454;28;20457;-73
2023/07/10 16:00:45;;;;;;;5.15;2.22;;;;;;;;;;20924447;28;20167;-72
2023/07/10 16:10:47;;;;;;;4.80;2.25;;;;;;;;;;20924350;28;20044;-72
2023/07/10 16:20:49;;;;;;;3.83;2.38;;;;;;;;;;20923632;28;20064;-71
2023/07/10 16:30:50;;;;;;;6.95;3.10;;;;;;;;;;20923388;28;20055;-71
2023/07/10 16:40:53;;;;;;;8.65;3.13;;;;;;;;;;20923290;28;20375;-71
2023/07/10 16:50:55;;;;;;;9.10;2.40;;;;;;;;;;20921247;28;20037;-72
2023/07/10 17:00:57;;;;;;;5.68;1.88;;;;;;;;;;20921704;28;20395;-71
2023/07/10 17:11:01;;;;;;;9.73;3.33;;;;;;;;;;20920087;28;20544;-72
2023/07/10 17:21:04;;;;;;;13.90;2.70;;;;;;;;;;20919683;28;20087;-71
2023/07/10 17:31:13;;;;;;;10.40;3.08;;;;;;;;;;20920108;28;20041;-71
2023/07/10 17:41:19;;;;;;;9.23;2.55;;;;;;;;;;20918493;28;20049;-71
2023/07/10 17:51:30;;;;;;;6.07;2.78;;;;;;;;;;20917757;28;20045;-71
2023/07/10 18:01:32;;;;;;;5.60;2.50;;;;;;;;;;20915434;28;20045;-72
2023/07/10 18:11:35;;;;;;;6.05;2.78;;;;;;;;;;20916013;28;20479;-72
2023/07/10 18:21:36;;;;;;;;;;;;;;;;;;20914024;28;20063;-71
2023/07/10 18:31:38;;;;;;;6.00;2.70;;;;;;;;;;20914443;28;20081;-71
2023/07/10 18:41:40;;;;;;;9.10;2.88;;;;;;;;;;20914303;28;20464;-72
2023/07/10 18:51:43;;;;;;;7.13;4.25;;;;;;;;;;20914039;28;20044;-70
2023/07/10 19:01:44;;;;;;;5.97;2.57;;;;;;;;;;20916301;28;20045;-74
2023/07/10 19:11:45;;;;;;;5.18;2.55;;;;;;;;;;20913128;28;20052;-70
2023/07/10 19:21:46;;;;;;;6.30;2.50;;;;;;;;;;20912529;28;20060;-72
2023/07/10 19:31:58;;;;;;;5.35;2.50;;;;;;;;;;20920331;28;20488;-73
2023/07/10 19:42:02;;;;;;;6.43;3.45;;;;;;;;;;20927628;28;20414;-73
2023/07/10 19:52:04;;;;;;;7.43;2.88;;;;;;;;;;20927144;28;20045;-74
2023/07/10 20:02:11;;;;;;;8.80;3.90;;;;;;;;;;20926640;28;20045;-75
2023/07/10 20:12:19;;;;;;;11.52;4.45;;;;;;;;;;20925629;28;20041;-75
2023/07/10 20:22:20;;;;;;;12.10;3.78;;;;;;;;;;20924184;28;20057;-73
2023/07/10 20:32:21;;;;;;;10.32;4.32;;;;;;;;;;20924274;28;20079;-73
2023/07/10 20:42:22;;;;;;;10.48;4.22;;;;;;;;;;20922316;28;20067;-73
2023/07/10 20:52:23;;;;;;;6.75;3.38;;;;;;;;;;20922249;28;20067;-73
2023/07/10 21:02:26;;;;;;;7.93;4.80;;;;;;;;;;20921945;28;20508;-72
2023/07/10 21:12:28;;;;;;;8.10;4.45;;;;;;;;;;20921841;28;20467;-73
2023/07/10 21:22:29;;;;;;;10.70;4.70;;;;;;;;;;20919001;28;20137;-74
2023/07/10 21:32:30;;;;;;;12.10;4.00;;;;;;;;;;20917963;28;20041;-73
2023/07/10 21:42:33;;;;;;;11.77;4.28;;;;;;;;;;20919130;28;20039;-74
2023/07/10 21:52:34;;;;;;;9.23;3.97;;;;;;;;;;20918196;28;20049;-73
2023/07/10 22:02:35;;;;;;;15.50;4.07;;;;;;;;;;20917404;28;20052;-74
2023/07/10 22:12:37;;;;;;;10.57;4.45;;;;;;;;;;20916506;28;20048;-73
2023/07/10 22:22:39;;;;;;;10.75;5.80;;;;;;;;;;20915869;28;20053;-74
2023/07/10 22:32:40;;;;;;;14.40;6.40;;;;;;;;;;20915444;28;20055;-74
2023/07/10 22:42:41;;;;;;;17.70;8.95;;;;;;;;;;20915704;28;20073;-74
2023/07/10 22:52:43;;;;;;;10.57;4.45;;;;;;;;;;20914504;28;20098;-74
2023/07/10 23:02:45;;;;;;;7.10;4.53;;;;;;;;;;20913311;28;20044;-73
2023/07/10 23:12:46;;;;;;;12.32;4.68;;;;;;;;;;20930069;28;20431;-75
2023/07/10 23:22:48;;;;;;;11.10;5.75;;;;;;;;;;20928476;28;20043;-74
2023/07/10 23:32:49;;;;;;;10.70;5.30;;;;;;;;;;20927171;28;20053;-73
2023/07/10 23:42:51;;;;;;;11.23;4.45;;;;;;;;;;20927686;28;20498;-74
2023/07/10 23:52:52;;;;;;;10.90;4.90;;;;;;;;;;20927058;28;20048;-73
